sensor_id;sensor_type;location;lat;lon;timestamp;pressure;altitude;pressure_sealevel;temperature;humidity
78299;BME280;67556;55.656;12.590;2023-02-25T00:01:12;99428.72;;;1.68;82.23
78299;BME280;67556;55.656;12.590;2023-02-25T00:03:41;99423.94;;;1.59;82.20
78299;BME280;67556;55.656;12.590;2023-02-25T00:06:09;99433.09;;;1.67;81.22
78299;BME280;67556;55.656;12.590;2023-02-25T00:08:38;99432.41;;;1.71;81.66
78299;BME280;67556;55.656;12.590;2023-02-25T00:11:06;99436.81;;;1.72;82.09
78299;BME280;67556;55.656;12.590;2023-02-25T00:13:34;99437.66;;;1.71;81.60
78299;BME280;67556;55.656;12.590;2023-02-25T00:16:03;99436.38;;;1.63;82.12
78299;BME280;67556;55.656;12.590;2023-02-25T00:18:32;99436.94;;;1.56;82.04
78299;BME280;67556;55.656;12.590;2023-02-25T00:21:03;99448.53;;;1.61;82.36
78299;BME280;67556;55.656;12.590;2023-02-25T00:23:31;99454.38;;;1.73;81.56
78299;BME280;67556;55.656;12.590;2023-02-25T00:26:00;99449.59;;;1.65;81.79
78299;BME280;67556;55.656;12.590;2023-02-25T00:28:27;99457.16;;;1.59;81.82
78299;BME280;67556;55.656;12.590;2023-02-25T00:30:55;99455.44;;;1.59;80.59
78299;BME280;67556;55.656;12.590;2023-02-25T00:33:22;99454.06;;;1.67;81.01
78299;BME280;67556;55.656;12.590;2023-02-25T00:35:53;99456.81;;;1.69;80.22
78299;BME280;67556;55.656;12.590;2023-02-25T00:38:20;99461.00;;;1.65;80.29
78299;BME280;67556;55.656;12.590;2023-02-25T00:40:46;99463.00;;;1.71;80.17
78299;BME280;67556;55.656;12.590;2023-02-25T00:43:13;99461.00;;;1.65;80.19
78299;BME280;67556;55.656;12.590;2023-02-25T00:45:39;99475.84;;;1.65;80.13
78299;BME280;67556;55.656;12.590;2023-02-25T00:48:07;99476.81;;;1.67;80.19
78299;BME280;67556;55.656;12.590;2023-02-25T00:50:34;99489.31;;;1.55;80.57
78299;BME280;67556;55.656;12.590;2023-02-25T00:53:02;99489.09;;;1.50;81.05
78299;BME280;67556;55.656;12.590;2023-02-25T00:55:28;99486.31;;;1.47;81.02
78299;BME280;67556;55.656;12.590;2023-02-25T00:58:00;99494.78;;;1.41;81.12
78299;BME280;67556;55.656;12.590;2023-02-25T01:00:27;99509.69;;;1.42;80.95
78299;BME280;67556;55.656;12.590;2023-02-25T01:02:56;99502.72;;;1.43;81.27
78299;BME280;67556;55.656;12.590;2023-02-25T01:05:28;99496.13;;;1.33;81.10
78299;BME280;67556;55.656;12.590;2023-02-25T01:07:55;99497.25;;;1.38;81.26
78299;BME280;67556;55.656;12.590;2023-02-25T01:10:22;99502.59;;;1.40;81.06
78299;BME280;67556;55.656;12.590;2023-02-25T01:12:50;99502.34;;;1.35;81.05
78299;BME280;67556;55.656;12.590;2023-02-25T01:15:16;99502.44;;;1.37;81.09
78299;BME280;67556;55.656;12.590;2023-02-25T01:17:49;99508.78;;;1.42;80.81
78299;BME280;67556;55.656;12.590;2023-02-25T01:20:17;99510.28;;;1.37;80.57
78299;BME280;67556;55.656;12.590;2023-02-25T01:22:46;99517.78;;;1.29;80.89
78299;BME280;67556;55.656;12.590;2023-02-25T01:25:13;99539.34;;;1.23;80.47
78299;BME280;67556;55.656;12.590;2023-02-25T01:27:44;99517.03;;;1.32;80.47
78299;BME280;67556;55.656;12.590;2023-02-25T01:30:13;99533.09;;;1.21;80.64
78299;BME280;67556;55.656;12.590;2023-02-25T01:32:40;99535.25;;;1.12;81.12
78299;BME280;67556;55.656;12.590;2023-02-25T01:35:07;99535.25;;;1.12;81.11
78299;BME280;67556;55.656;12.590;2023-02-25T01:37:35;99539.59;;;1.12;81.46
78299;BME280;67556;55.656;12.590;2023-02-25T01:40:02;99538.53;;;1.08;81.27
78299;BME280;67556;55.656;12.590;2023-02-25T01:42:31;99538.78;;;1.13;81.16
78299;BME280;67556;55.656;12.590;2023-02-25T01:45:26;99558.56;;;1.06;81.88
78299;BME280;67556;55.656;12.590;2023-02-25T01:47:57;99549.69;;;0.88;81.67
78299;BME280;67556;55.656;12.590;2023-02-25T01:50:30;99573.75;;;1.13;81.31
78299;BME280;67556;55.656;12.590;2023-02-25T01:53:00;99568.69;;;1.00;80.02
78299;BME280;67556;55.656;12.590;2023-02-25T01:55:28;99570.44;;;0.99;80.60
78299;BME280;67556;55.656;12.590;2023-02-25T01:57:56;99585.75;;;0.92;80.84
78299;BME280;67556;55.656;12.590;2023-02-25T02:00:25;99584.84;;;0.91;80.30
78299;BME280;67556;55.656;12.590;2023-02-25T02:02:53;99582.31;;;0.77;80.37
78299;BME280;67556;55.656;12.590;2023-02-25T02:05:22;99587.56;;;0.77;80.58
78299;BME280;67556;55.656;12.590;2023-02-25T02:07:52;99601.03;;;0.84;80.53
78299;BME280;67556;55.656;12.590;2023-02-25T02:10:18;99586.97;;;0.82;80.92
78299;BME280;67556;55.656;12.590;2023-02-25T02:12:45;99590.25;;;0.78;80.41
78299;BME280;67556;55.656;12.590;2023-02-25T02:15:13;99601.16;;;0.86;80.39
78299;BME280;67556;55.656;12.590;2023-02-25T02:17:45;99607.47;;;0.89;80.39
78299;BME280;67556;55.656;12.590;2023-02-25T02:20:20;99611.47;;;0.83;79.04
78299;BME280;67556;55.656;12.590;2023-02-25T02:23:21;99623.50;;;0.79;79.40
78299;BME280;67556;55.656;12.590;2023-02-25T02:29:21;99619.78;;;0.75;79.93
78299;BME280;67556;55.656;12.590;2023-02-25T02:32:15;99626.03;;;0.78;79.73
78299;BME280;67556;55.656;12.590;2023-02-25T02:34:50;99628.66;;;0.78;78.94
78299;BME280;67556;55.656;12.590;2023-02-25T02:37:25;99642.44;;;0.90;79.46
78299;BME280;67556;55.656;12.590;2023-02-25T02:40:03;99652.75;;;0.87;79.24
78299;BME280;67556;55.656;12.590;2023-02-25T02:42:38;99644.06;;;0.88;79.22
78299;BME280;67556;55.656;12.590;2023-02-25T02:45:11;99650.78;;;0.83;79.30
78299;BME280;67556;55.656;12.590;2023-02-25T02:47:42;99660.09;;;0.78;79.88
78299;BME280;67556;55.656;12.590;2023-02-25T02:50:13;99675.38;;;0.85;80.06
78299;BME280;67556;55.656;12.590;2023-02-25T02:52:46;99661.47;;;0.71;79.46
78299;BME280;67556;55.656;12.590;2023-02-25T02:55:17;99666.72;;;0.71;80.34
78299;BME280;67556;55.656;12.590;2023-02-25T02:57:49;99678.09;;;0.71;79.14
78299;BME280;67556;55.656;12.590;2023-02-25T03:00:19;99679.75;;;0.69;79.26
78299;BME280;67556;55.656;12.590;2023-02-25T03:02:55;99677.94;;;0.68;78.89
78299;BME280;67556;55.656;12.590;2023-02-25T03:05:23;99687.53;;;0.68;78.95
78299;BME280;67556;55.656;12.590;2023-02-25T03:07:59;99691.69;;;0.64;79.44
78299;BME280;67556;55.656;12.590;2023-02-25T03:10:27;99699.56;;;0.64;79.26
78299;BME280;67556;55.656;12.590;2023-02-25T03:12:54;99703.44;;;0.56;78.90
78299;BME280;67556;55.656;12.590;2023-02-25T03:15:25;99710.69;;;0.60;79.54
78299;BME280;67556;55.656;12.590;2023-02-25T03:18:01;99693.25;;;0.46;80.24
78299;BME280;67556;55.656;12.590;2023-02-25T03:20:32;99708.72;;;0.41;81.11
78299;BME280;67556;55.656;12.590;2023-02-25T03:23:05;99701.16;;;0.31;80.95
78299;BME280;67556;55.656;12.590;2023-02-25T03:25:37;99721.28;;;0.32;81.55
78299;BME280;67556;55.656;12.590;2023-02-25T03:28:19;99709.09;;;0.33;80.84
78299;BME280;67556;55.656;12.590;2023-02-25T03:30:49;99733.28;;;0.29;82.36
78299;BME280;67556;55.656;12.590;2023-02-25T03:33:25;99721.34;;;0.34;80.73
78299;BME280;67556;55.656;12.590;2023-02-25T03:35:54;99744.75;;;0.45;80.27
78299;BME280;67556;55.656;12.590;2023-02-25T03:38:24;99743.94;;;0.32;79.73
78299;BME280;67556;55.656;12.590;2023-02-25T03:40:53;99751.88;;;0.48;80.35
78299;BME280;67556;55.656;12.590;2023-02-25T03:43:24;99763.34;;;0.50;80.70
78299;BME280;67556;55.656;12.590;2023-02-25T03:45:53;99755.13;;;0.44;80.41
78299;BME280;67556;55.656;12.590;2023-02-25T03:48:23;99759.38;;;0.27;80.29
78299;BME280;67556;55.656;12.590;2023-02-25T03:50:53;99772.13;;;0.36;78.62
78299;BME280;67556;55.656;12.590;2023-02-25T03:53:30;99780.59;;;0.32;77.53
78299;BME280;67556;55.656;12.590;2023-02-25T03:56:15;99774.03;;;0.38;77.39
78299;BME280;67556;55.656;12.590;2023-02-25T03:58:44;99783.69;;;0.39;77.11
78299;BME280;67556;55.656;12.590;2023-02-25T04:03:41;99783.56;;;0.38;76.50
78299;BME280;67556;55.656;12.590;2023-02-25T04:06:09;99798.84;;;0.45;76.52
78299;BME280;67556;55.656;12.590;2023-02-25T04:08:40;99808.78;;;0.36;75.27
78299;BME280;67556;55.656;12.590;2023-02-25T04:11:06;99811.97;;;0.30;76.47
78299;BME280;67556;55.656;12.590;2023-02-25T04:13:35;99818.16;;;0.32;75.45
78299;BME280;67556;55.656;12.590;2023-02-25T04:16:04;99809.22;;;0.29;76.13
78299;BME280;67556;55.656;12.590;2023-02-25T04:18:32;99831.53;;;0.22;75.59
78299;BME280;67556;55.656;12.590;2023-02-25T04:20:59;99835.88;;;0.21;74.78
78299;BME280;67556;55.656;12.590;2023-02-25T04:23:26;99824.03;;;0.28;73.94
78299;BME280;67556;55.656;12.590;2023-02-25T04:25:52;99850.34;;;0.30;73.44
78299;BME280;67556;55.656;12.590;2023-02-25T04:28:20;99841.66;;;0.31;72.76
78299;BME280;67556;55.656;12.590;2023-02-25T04:30:47;99849.97;;;0.38;72.42
78299;BME280;67556;55.656;12.590;2023-02-25T04:33:14;99865.97;;;0.43;72.59
78299;BME280;67556;55.656;12.590;2023-02-25T04:35:40;99859.91;;;0.44;70.57
78299;BME280;67556;55.656;12.590;2023-02-25T04:38:08;99857.38;;;0.45;71.35
78299;BME280;67556;55.656;12.590;2023-02-25T04:40:35;99882.66;;;0.45;72.39
78299;BME280;67556;55.656;12.590;2023-02-25T04:43:03;99874.91;;;0.61;72.01
78299;BME280;67556;55.656;12.590;2023-02-25T04:45:30;99879.69;;;0.54;72.96
78299;BME280;67556;55.656;12.590;2023-02-25T04:47:57;99878.06;;;0.41;73.12
78299;BME280;67556;55.656;12.590;2023-02-25T04:50:23;99879.50;;;0.36;72.32
78299;BME280;67556;55.656;12.590;2023-02-25T04:52:50;99884.94;;;0.39;72.71
78299;BME280;67556;55.656;12.590;2023-02-25T04:55:19;99885.91;;;0.41;72.63
78299;BME280;67556;55.656;12.590;2023-02-25T04:57:46;99887.72;;;0.42;71.97
78299;BME280;67556;55.656;12.590;2023-02-25T05:00:16;99885.09;;;0.42;71.32
78299;BME280;67556;55.656;12.590;2023-02-25T05:02:45;99888.66;;;0.42;71.30
78299;BME280;67556;55.656;12.590;2023-02-25T05:05:13;99891.81;;;0.52;69.81
78299;BME280;67556;55.656;12.590;2023-02-25T05:07:41;99890.97;;;0.53;69.73
78299;BME280;67556;55.656;12.590;2023-02-25T05:10:10;99908.31;;;0.50;71.22
78299;BME280;67556;55.656;12.590;2023-02-25T05:12:40;99905.81;;;0.67;71.57
78299;BME280;67556;55.656;12.590;2023-02-25T05:15:08;99908.00;;;0.59;70.63
78299;BME280;67556;55.656;12.590;2023-02-25T05:17:35;99914.91;;;0.59;71.99
78299;BME280;67556;55.656;12.590;2023-02-25T05:20:03;99919.53;;;0.63;71.29
78299;BME280;67556;55.656;12.590;2023-02-25T05:22:37;99909.16;;;0.64;72.02
78299;BME280;67556;55.656;12.590;2023-02-25T05:25:04;99913.69;;;0.82;70.76
78299;BME280;67556;55.656;12.590;2023-02-25T05:27:33;99933.63;;;0.80;69.08
78299;BME280;67556;55.656;12.590;2023-02-25T05:30:01;99933.47;;;0.77;67.46
78299;BME280;67556;55.656;12.590;2023-02-25T05:32:29;99941.34;;;0.77;68.67
78299;BME280;67556;55.656;12.590;2023-02-25T05:34:56;99949.22;;;0.77;68.94
78299;BME280;67556;55.656;12.590;2023-02-25T05:37:23;99941.31;;;0.62;70.29
78299;BME280;67556;55.656;12.590;2023-02-25T05:39:50;99953.72;;;0.64;70.60
78299;BME280;67556;55.656;12.590;2023-02-25T05:42:16;99955.44;;;0.64;69.60
78299;BME280;67556;55.656;12.590;2023-02-25T05:44:43;99962.19;;;0.75;70.29
78299;BME280;67556;55.656;12.590;2023-02-25T05:47:11;99964.53;;;0.70;70.05
78299;BME280;67556;55.656;12.590;2023-02-25T05:49:39;99969.59;;;0.67;71.02
78299;BME280;67556;55.656;12.590;2023-02-25T05:52:07;99968.25;;;0.74;70.05
78299;BME280;67556;55.656;12.590;2023-02-25T05:54:35;99973.03;;;0.66;69.67
78299;BME280;67556;55.656;12.590;2023-02-25T05:57:02;99979.28;;;0.68;69.23
78299;BME280;67556;55.656;12.590;2023-02-25T05:59:28;99982.81;;;0.69;69.35
78299;BME280;67556;55.656;12.590;2023-02-25T06:01:56;99977.84;;;0.73;69.66
78299;BME280;67556;55.656;12.590;2023-02-25T06:04:24;99985.44;;;0.69;69.06
78299;BME280;67556;55.656;12.590;2023-02-25T06:06:50;99990.13;;;0.74;70.00
78299;BME280;67556;55.656;12.590;2023-02-25T06:09:17;100008.81;;;0.66;71.20
78299;BME280;67556;55.656;12.590;2023-02-25T06:11:45;100012.09;;;0.77;71.07
78299;BME280;67556;55.656;12.590;2023-02-25T06:14:13;100010.63;;;0.67;71.19
78299;BME280;67556;55.656;12.590;2023-02-25T06:16:41;100020.88;;;0.77;70.43
78299;BME280;67556;55.656;12.590;2023-02-25T06:19:10;100032.34;;;0.79;70.27
78299;BME280;67556;55.656;12.590;2023-02-25T06:21:38;100042.34;;;0.71;67.71
78299;BME280;67556;55.656;12.590;2023-02-25T06:24:06;100044.97;;;0.71;68.29
78299;BME280;67556;55.656;12.590;2023-02-25T06:26:34;100048.31;;;0.69;67.45
78299;BME280;67556;55.656;12.590;2023-02-25T06:29:06;100047.69;;;0.73;67.28
78299;BME280;67556;55.656;12.590;2023-02-25T06:31:35;100050.66;;;0.64;67.99
78299;BME280;67556;55.656;12.590;2023-02-25T06:34:02;100055.69;;;0.61;68.75
78299;BME280;67556;55.656;12.590;2023-02-25T06:36:28;100067.75;;;0.72;68.54
78299;BME280;67556;55.656;12.590;2023-02-25T06:38:56;100064.13;;;0.70;68.81
78299;BME280;67556;55.656;12.590;2023-02-25T06:41:23;100071.69;;;0.66;69.63
78299;BME280;67556;55.656;12.590;2023-02-25T06:43:51;100071.56;;;0.78;69.37
78299;BME280;67556;55.656;12.590;2023-02-25T06:46:21;100080.59;;;0.83;69.06
78299;BME280;67556;55.656;12.590;2023-02-25T06:48:48;100084.41;;;0.88;68.60
78299;BME280;67556;55.656;12.590;2023-02-25T06:51:14;100090.41;;;0.85;69.18
78299;BME280;67556;55.656;12.590;2023-02-25T06:53:43;100096.13;;;0.93;68.70
78299;BME280;67556;55.656;12.590;2023-02-25T06:56:13;100092.19;;;0.86;69.34
78299;BME280;67556;55.656;12.590;2023-02-25T06:58:40;100098.59;;;0.77;69.69
78299;BME280;67556;55.656;12.590;2023-02-25T07:01:07;100106.41;;;0.90;68.79
78299;BME280;67556;55.656;12.590;2023-02-25T07:03:34;100110.97;;;0.79;68.82
78299;BME280;67556;55.656;12.590;2023-02-25T07:06:01;100114.28;;;0.90;68.41
78299;BME280;67556;55.656;12.590;2023-02-25T07:08:27;100113.09;;;0.71;67.70
78299;BME280;67556;55.656;12.590;2023-02-25T07:10:55;100123.78;;;0.74;67.84
78299;BME280;67556;55.656;12.590;2023-02-25T07:13:23;100136.09;;;0.62;68.37
78299;BME280;67556;55.656;12.590;2023-02-25T07:15:50;100112.97;;;0.55;67.91
78299;BME280;67556;55.656;12.590;2023-02-25T07:18:16;100138.03;;;0.65;68.61
78299;BME280;67556;55.656;12.590;2023-02-25T07:20:44;100140.56;;;0.63;68.36
78299;BME280;67556;55.656;12.590;2023-02-25T07:23:11;100145.47;;;0.59;68.02
78299;BME280;67556;55.656;12.590;2023-02-25T07:25:37;100157.19;;;0.64;68.25
78299;BME280;67556;55.656;12.590;2023-02-25T07:28:04;100141.97;;;0.58;68.39
78299;BME280;67556;55.656;12.590;2023-02-25T07:30:32;100155.75;;;0.69;68.16
78299;BME280;67556;55.656;12.590;2023-02-25T07:32:59;100154.28;;;0.59;67.67
78299;BME280;67556;55.656;12.590;2023-02-25T07:35:28;100152.28;;;0.55;67.44
78299;BME280;67556;55.656;12.590;2023-02-25T07:37:55;100164.16;;;0.63;67.72
78299;BME280;67556;55.656;12.590;2023-02-25T07:40:22;100157.88;;;0.61;66.29
78299;BME280;67556;55.656;12.590;2023-02-25T07:42:48;100159.56;;;0.74;66.82
78299;BME280;67556;55.656;12.590;2023-02-25T07:45:21;100180.34;;;0.58;67.25
78299;BME280;67556;55.656;12.590;2023-02-25T07:47:52;100180.66;;;0.62;66.77
78299;BME280;67556;55.656;12.590;2023-02-25T07:50:21;100174.00;;;0.54;66.44
78299;BME280;67556;55.656;12.590;2023-02-25T07:52:47;100189.84;;;0.56;66.71
78299;BME280;67556;55.656;12.590;2023-02-25T07:55:14;100187.72;;;0.63;66.68
78299;BME280;67556;55.656;12.590;2023-02-25T07:57:41;100193.25;;;0.55;66.35
78299;BME280;67556;55.656;12.590;2023-02-25T08:00:09;100196.00;;;0.56;64.97
78299;BME280;67556;55.656;12.590;2023-02-25T08:02:36;100197.47;;;0.66;66.22
78299;BME280;67556;55.656;12.590;2023-02-25T08:05:05;100209.91;;;0.55;66.12
78299;BME280;67556;55.656;12.590;2023-02-25T08:07:32;100218.97;;;0.47;66.24
78299;BME280;67556;55.656;12.590;2023-02-25T08:10:00;100214.66;;;0.34;66.94
78299;BME280;67556;55.656;12.590;2023-02-25T08:12:27;100210.31;;;0.35;67.56
78299;BME280;67556;55.656;12.590;2023-02-25T08:15:07;100214.22;;;0.28;67.37
78299;BME280;67556;55.656;12.590;2023-02-25T08:17:34;100229.56;;;0.22;67.49
78299;BME280;67556;55.656;12.590;2023-02-25T08:20:00;100235.69;;;0.22;67.61
78299;BME280;67556;55.656;12.590;2023-02-25T08:22:32;100247.97;;;0.23;66.93
78299;BME280;67556;55.656;12.590;2023-02-25T08:25:01;100239.41;;;0.13;66.81
78299;BME280;67556;55.656;12.590;2023-02-25T08:27:27;100249.38;;;0.18;67.09
78299;BME280;67556;55.656;12.590;2023-02-25T08:30:04;100257.84;;;0.28;67.79
78299;BME280;67556;55.656;12.590;2023-02-25T08:32:34;100257.31;;;0.20;67.15
78299;BME280;67556;55.656;12.590;2023-02-25T08:35:08;100260.69;;;0.31;66.82
78299;BME280;67556;55.656;12.590;2023-02-25T08:37:50;100257.03;;;0.29;67.13
78299;BME280;67556;55.656;12.590;2023-02-25T08:40:18;100268.72;;;0.34;66.88
78299;BME280;67556;55.656;12.590;2023-02-25T08:42:45;100253.00;;;0.34;66.10
78299;BME280;67556;55.656;12.590;2023-02-25T08:45:13;100268.22;;;0.26;65.97
78299;BME280;67556;55.656;12.590;2023-02-25T08:47:39;100271.97;;;0.43;65.41
78299;BME280;67556;55.656;12.590;2023-02-25T08:50:07;100288.28;;;0.39;66.34
78299;BME280;67556;55.656;12.590;2023-02-25T08:52:36;100268.94;;;0.50;65.18
78299;BME280;67556;55.656;12.590;2023-02-25T08:55:05;100289.28;;;0.67;64.49
78299;BME280;67556;55.656;12.590;2023-02-25T08:57:32;100300.41;;;0.63;63.35
78299;BME280;67556;55.656;12.590;2023-02-25T08:59:58;100293.03;;;0.44;62.81
78299;BME280;67556;55.656;12.590;2023-02-25T09:02:26;100304.41;;;0.58;63.11
78299;BME280;67556;55.656;12.590;2023-02-25T09:04:53;100316.22;;;0.52;63.42
78299;BME280;67556;55.656;12.590;2023-02-25T09:07:19;100327.69;;;0.54;63.78
78299;BME280;67556;55.656;12.590;2023-02-25T09:09:53;100318.31;;;0.57;63.68
78299;BME280;67556;55.656;12.590;2023-02-25T09:12:23;100319.75;;;0.65;63.18
78299;BME280;67556;55.656;12.590;2023-02-25T09:14:49;100336.47;;;0.67;61.93
78299;BME280;67556;55.656;12.590;2023-02-25T09:17:18;100344.00;;;0.49;62.42
78299;BME280;67556;55.656;12.590;2023-02-25T09:19:45;100341.53;;;0.64;63.06
78299;BME280;67556;55.656;12.590;2023-02-25T09:22:11;100352.38;;;0.44;62.40
78299;BME280;67556;55.656;12.590;2023-02-25T09:24:40;100359.41;;;0.45;62.79
78299;BME280;67556;55.656;12.590;2023-02-25T09:27:07;100355.44;;;0.63;61.26
78299;BME280;67556;55.656;12.590;2023-02-25T09:29:35;100367.91;;;0.54;62.74
78299;BME280;67556;55.656;12.590;2023-02-25T09:32:04;100382.03;;;0.56;62.30
78299;BME280;67556;55.656;12.590;2023-02-25T09:34:31;100379.63;;;0.59;62.28
78299;BME280;67556;55.656;12.590;2023-02-25T09:36:59;100382.13;;;0.71;63.30
78299;BME280;67556;55.656;12.590;2023-02-25T09:39:29;100390.84;;;0.45;63.12
78299;BME280;67556;55.656;12.590;2023-02-25T09:42:01;100395.59;;;0.50;62.87
78299;BME280;67556;55.656;12.590;2023-02-25T09:44:37;100398.50;;;0.42;61.00
78299;BME280;67556;55.656;12.590;2023-02-25T09:47:13;100410.00;;;0.44;61.97
78299;BME280;67556;55.656;12.590;2023-02-25T09:49:45;100405.09;;;0.62;61.88
78299;BME280;67556;55.656;12.590;2023-02-25T09:52:15;100421.69;;;0.49;61.38
78299;BME280;67556;55.656;12.590;2023-02-25T09:54:45;100409.41;;;0.48;62.02
78299;BME280;67556;55.656;12.590;2023-02-25T09:57:16;100408.88;;;0.40;61.65
78299;BME280;67556;55.656;12.590;2023-02-25T09:59:48;100430.09;;;0.32;61.54
78299;BME280;67556;55.656;12.590;2023-02-25T10:02:21;100422.47;;;0.35;62.41
78299;BME280;67556;55.656;12.590;2023-02-25T10:05:04;100437.69;;;0.40;62.04
78299;BME280;67556;55.656;12.590;2023-02-25T10:07:34;100442.03;;;0.40;61.47
78299;BME280;67556;55.656;12.590;2023-02-25T10:10:06;100449.31;;;0.44;61.59
78299;BME280;67556;55.656;12.590;2023-02-25T10:12:39;100452.28;;;0.37;61.75
78299;BME280;67556;55.656;12.590;2023-02-25T10:18:39;100460.91;;;0.22;61.26
78299;BME280;67556;55.656;12.590;2023-02-25T10:21:16;100458.97;;;0.45;61.08
78299;BME280;67556;55.656;12.590;2023-02-25T10:23:57;100472.09;;;0.58;61.97
78299;BME280;67556;55.656;12.590;2023-02-25T10:26:30;100484.81;;;0.52;60.71
78299;BME280;67556;55.656;12.590;2023-02-25T10:29:01;100501.91;;;0.47;60.22
78299;BME280;67556;55.656;12.590;2023-02-25T10:31:30;100502.28;;;0.40;60.13
78299;BME280;67556;55.656;12.590;2023-02-25T10:34:13;100519.06;;;0.30;60.33
78299;BME280;67556;55.656;12.590;2023-02-25T10:36:48;100518.22;;;0.43;60.25
78299;BME280;67556;55.656;12.590;2023-02-25T10:39:17;100524.22;;;0.42;59.06
78299;BME280;67556;55.656;12.590;2023-02-25T10:41:43;100507.31;;;0.25;59.90
78299;BME280;67556;55.656;12.590;2023-02-25T10:44:11;100518.22;;;0.43;60.19
78299;BME280;67556;55.656;12.590;2023-02-25T10:46:43;100530.78;;;0.35;59.08
78299;BME280;67556;55.656;12.590;2023-02-25T10:49:15;100527.91;;;0.32;59.45
78299;BME280;67556;55.656;12.590;2023-02-25T10:51:55;100525.53;;;0.35;59.24
78299;BME280;67556;55.656;12.590;2023-02-25T10:54:23;100530.81;;;0.48;58.45
78299;BME280;67556;55.656;12.590;2023-02-25T10:56:50;100537.91;;;0.38;58.73
78299;BME280;67556;55.656;12.590;2023-02-25T10:59:29;100529.59;;;0.43;59.47
78299;BME280;67556;55.656;12.590;2023-02-25T11:01:58;100554.63;;;0.52;59.26
78299;BME280;67556;55.656;12.590;2023-02-25T11:04:33;100549.13;;;0.60;60.11
78299;BME280;67556;55.656;12.590;2023-02-25T11:07:22;100547.06;;;0.68;59.07
78299;BME280;67556;55.656;12.590;2023-02-25T11:10:05;100546.03;;;0.66;57.44
78299;BME280;67556;55.656;12.590;2023-02-25T11:12:39;100574.19;;;0.57;57.54
78299;BME280;67556;55.656;12.590;2023-02-25T11:15:17;100576.00;;;0.58;58.55
78299;BME280;67556;55.656;12.590;2023-02-25T11:17:46;100559.22;;;0.67;58.21
78299;BME280;67556;55.656;12.590;2023-02-25T11:20:22;100567.41;;;0.47;57.41
78299;BME280;67556;55.656;12.590;2023-02-25T11:22:51;100554.47;;;0.62;59.14
78299;BME280;67556;55.656;12.590;2023-02-25T11:25:36;100572.06;;;0.51;56.87
78299;BME280;67556;55.656;12.590;2023-02-25T11:28:05;100563.09;;;0.72;56.76
78299;BME280;67556;55.656;12.590;2023-02-25T11:30:35;100556.00;;;0.71;56.70
78299;BME280;67556;55.656;12.590;2023-02-25T11:33:08;100575.63;;;0.77;56.50
78299;BME280;67556;55.656;12.590;2023-02-25T11:35:44;100577.25;;;0.88;56.41
78299;BME280;67556;55.656;12.590;2023-02-25T11:38:14;100577.25;;;0.88;55.13
78299;BME280;67556;55.656;12.590;2023-02-25T11:40:48;100572.59;;;0.84;55.26
78299;BME280;67556;55.656;12.590;2023-02-25T11:43:19;100590.00;;;0.95;56.18
78299;BME280;67556;55.656;12.590;2023-02-25T11:45:53;100574.50;;;0.73;55.61
78299;BME280;67556;55.656;12.590;2023-02-25T11:48:23;100589.72;;;0.79;55.57
78299;BME280;67556;55.656;12.590;2023-02-25T11:50:59;100592.22;;;0.89;55.23
78299;BME280;67556;55.656;12.590;2023-02-25T11:53:37;100596.63;;;0.90;56.01
78299;BME280;67556;55.656;12.590;2023-02-25T11:56:13;100588.75;;;1.15;55.52
78299;BME280;67556;55.656;12.590;2023-02-25T11:58:49;100595.59;;;1.13;54.39
78299;BME280;67556;55.656;12.590;2023-02-25T12:01:35;100591.91;;;1.22;54.45
78299;BME280;67556;55.656;12.590;2023-02-25T12:04:19;100611.81;;;1.32;54.44
78299;BME280;67556;55.656;12.590;2023-02-25T12:07:11;100591.91;;;1.22;54.36
78299;BME280;67556;55.656;12.590;2023-02-25T12:09:56;100599.88;;;1.24;54.78
78299;BME280;67556;55.656;12.590;2023-02-25T12:12:44;100600.22;;;1.42;55.43
78299;BME280;67556;55.656;12.590;2023-02-25T12:15:53;100604.44;;;1.27;54.70
78299;BME280;67556;55.656;12.590;2023-02-25T12:18:56;100606.25;;;1.28;53.63
78299;BME280;67556;55.656;12.590;2023-02-25T12:22:10;100616.25;;;1.33;53.66
78299;BME280;67556;55.656;12.590;2023-02-25T12:25:01;100608.31;;;1.45;53.44
78299;BME280;67556;55.656;12.590;2023-02-25T12:27:46;100609.44;;;1.62;53.72
78299;BME280;67556;55.656;12.590;2023-02-25T12:30:45;100605.78;;;1.60;53.86
78299;BME280;67556;55.656;12.590;2023-02-25T12:33:40;100617.41;;;1.50;52.20
78299;BME280;67556;55.656;12.590;2023-02-25T12:36:21;100596.28;;;1.35;52.10
78299;BME280;67556;55.656;12.590;2023-02-25T12:39:04;100606.97;;;1.38;52.80
78299;BME280;67556;55.656;12.590;2023-02-25T12:41:44;100615.38;;;1.59;54.20
78299;BME280;67556;55.656;12.590;2023-02-25T12:44:36;100615.81;;;1.65;53.62
78299;BME280;67556;55.656;12.590;2023-02-25T12:47:22;100616.19;;;1.45;54.38
78299;BME280;67556;55.656;12.590;2023-02-25T12:50:11;100616.00;;;1.55;55.21
78299;BME280;67556;55.656;12.590;2023-02-25T12:52:50;100619.44;;;1.67;56.33
78299;BME280;67556;55.656;12.590;2023-02-25T12:55:35;100629.94;;;1.67;55.78
78299;BME280;67556;55.656;12.590;2023-02-25T13:01:31;100640.63;;;1.57;53.91
78299;BME280;67556;55.656;12.590;2023-02-25T13:04:27;100642.66;;;1.61;52.05
78299;BME280;67556;55.656;12.590;2023-02-25T13:07:16;100640.38;;;1.79;52.27
78299;BME280;67556;55.656;12.590;2023-02-25T13:10:11;100637.44;;;1.88;52.34
78299;BME280;67556;55.656;12.590;2023-02-25T13:12:53;100651.69;;;1.91;52.90
78299;BME280;67556;55.656;12.590;2023-02-25T13:15:31;100644.03;;;2.08;53.24
78299;BME280;67556;55.656;12.590;2023-02-25T13:18:34;100649.38;;;1.96;52.76
78299;BME280;67556;55.656;12.590;2023-02-25T13:21:16;100656.25;;;1.94;52.32
78299;BME280;67556;55.656;12.590;2023-02-25T13:24:01;100642.59;;;1.86;52.90
78299;BME280;67556;55.656;12.590;2023-02-25T13:29:30;100661.69;;;1.84;52.85
78299;BME280;67556;55.656;12.590;2023-02-25T13:35:11;100683.88;;;1.75;52.91
78299;BME280;67556;55.656;12.590;2023-02-25T13:37:48;100685.69;;;1.77;52.76